KEGE/EGE METAR and TAF weather

Enter ICAO airport designator
Station Type Date Time Source
KEGE METAR 2019/08/25 02:56 UTC NOAA

KEGE 250256Z AUTO 00000KT 10SM CLR 22/01 A3018 RMK AO2 SLP160 T02220011 53011


Station Type Date Time Source
KEGE Decoded METAR 2019/08/25 02:56 UTC NOAA

Station name not available
Aug 24, 2019 - 10:56 PM EDT / 2019.08.25 0256 UTC
Wind: Calm:0
Visibility: 10 mile(s):0
Sky conditions: clear
Temperature: 72.0 F (22.2 C)
Dew Point: 34.0 F (1.1 C)
Relative Humidity: 24%
Pressure (altimeter): 30.18 in. Hg (1022 hPa)
Pressure tendency: 0.03 inches (1.1 hPa) higher than three hours ago
ob: KEGE 250256Z AUTO 00000KT 10SM CLR 22/01 A3018 RMK AO2 SLP160 T02220011 53011
cycle: 3

Station Type Date Time Source
KEGE TAF 2019/08/24 18:22 UTC NOAA

TAF KEGE 241720Z 2418/2518 00000KT P6SM FEW250
FM241900 27011G22KT P6SM FEW150 FEW200
FM250100 27009KT P6SM FEW150 FEW250
FM250300 VRB03KT P6SM SKC

Example: see airport list